Time;durP1;ratioP1;P1;durP2;ratioP2;P2;SDS_P1;SDS_P2;PMS_P1;PMS_P2;Temp;Humidity;BMP_temperature;BMP_pressure;BME280_temperature;BME280_humidity;BME280_pressure;Samples;Min_cycle;Max_cycle;Signal;HPM_P1;HPM_P2
2023/04/02 00:01:05;;;;;;;57.20;2.40;;;;;;;;;;5074955;28;20447;-68
2023/04/02 00:04:02;;;;;;;58.40;3.40;;;;;;;;;;5075040;28;20462;-67
2023/04/02 00:06:38;;;;;;;57.20;2.70;;;;;;;;;;5074816;28;20450;-67
2023/04/02 00:09:18;;;;;;;57.50;2.70;;;;;;;;;;5074513;28;20509;-67
2023/04/02 00:11:47;;;;;;;57.50;2.80;;;;;;;;;;5074980;28;20528;-67
2023/04/02 00:14:17;;;;;;;57.50;2.60;;;;;;;;;;5074792;28;20526;-67
2023/04/02 00:16:44;;;;;;;57.63;2.80;;;;;;;;;;5074583;28;20450;-67
2023/04/02 00:19:15;;;;;;;57.07;2.17;;;;;;;;;;5074690;28;20490;-68
2023/04/02 00:21:45;;;;;;;58.67;2.67;;;;;;;;;;5074905;28;20765;-67
2023/04/02 00:24:15;;;;;;;58.17;2.73;;;;;;;;;;5074594;28;20470;-67
2023/04/02 00:26:44;;;;;;;57.40;2.40;;;;;;;;;;5074770;28;20459;-67
2023/04/02 00:29:12;;;;;;;57.40;2.50;;;;;;;;;;5073916;28;20486;-67
2023/04/02 00:31:41;;;;;;;57.17;2.53;;;;;;;;;;5074660;28;20455;-67
2023/04/02 00:34:10;;;;;;;57.30;2.47;;;;;;;;;;5074368;28;20966;-67
2023/04/02 00:36:38;;;;;;;57.07;2.37;;;;;;;;;;5074698;28;20501;-67
2023/04/02 00:39:10;;;;;;;57.80;2.60;;;;;;;;;;5073885;28;20491;-67
2023/04/02 00:41:38;;;;;;;57.70;2.57;;;;;;;;;;5074291;28;20451;-67
2023/04/02 00:44:05;;;;;;;57.20;2.80;;;;;;;;;;5074258;28;20439;-67
2023/04/02 00:46:45;;;;;;;57.53;2.70;;;;;;;;;;5074402;28;20493;-67
2023/04/02 00:49:18;;;;;;;58.10;2.50;;;;;;;;;;5073899;28;20494;-67
2023/04/02 00:51:47;;;;;;;59.30;2.60;;;;;;;;;;5074198;28;20473;-67
2023/04/02 00:54:19;;;;;;;58.83;2.90;;;;;;;;;;5074004;28;20443;-67
2023/04/02 00:56:47;;;;;;;56.93;2.30;;;;;;;;;;5074215;28;20459;-67
2023/04/02 00:59:20;;;;;;;57.10;2.50;;;;;;;;;;5073607;28;20494;-67
2023/04/02 01:01:53;;;;;;;57.30;2.70;;;;;;;;;;5074091;28;20448;-67
2023/04/02 01:04:27;;;;;;;58.07;2.53;;;;;;;;;;5073968;28;20447;-67
2023/04/02 01:06:55;;;;;;;57.50;2.27;;;;;;;;;;5073728;28;20916;-67
2023/04/02 01:09:31;;;;;;;59.23;2.67;;;;;;;;;;5073350;28;20450;-68
2023/04/02 01:12:21;;;;;;;57.50;2.57;;;;;;;;;;5073877;28;20545;-67
2023/04/02 01:14:52;;;;;;;57.33;2.60;;;;;;;;;;5073614;28;20451;-67
2023/04/02 01:17:27;;;;;;;60.30;2.80;;;;;;;;;;5073456;28;20852;-67
2023/04/02 01:20:07;;;;;;;57.13;2.47;;;;;;;;;;5073380;28;20457;-67
2023/04/02 01:22:40;;;;;;;58.37;2.90;;;;;;;;;;5072021;28;20939;-67
2023/04/02 01:25:14;;;;;;;58.00;2.77;;;;;;;;;;5073413;28;20463;-67
2023/04/02 01:27:43;;;;;;;57.30;2.50;;;;;;;;;;5073459;28;20471;-67
2023/04/02 01:30:13;;;;;;;56.47;2.70;;;;;;;;;;5072936;28;20447;-66
2023/04/02 01:32:41;;;;;;;58.40;2.53;;;;;;;;;;5073421;28;20466;-67
2023/04/02 01:35:10;;;;;;;57.67;2.70;;;;;;;;;;5073195;28;20545;-67
2023/04/02 01:37:43;;;;;;;57.83;2.60;;;;;;;;;;5073257;28;20615;-67
2023/04/02 01:40:16;;;;;;;57.03;2.53;;;;;;;;;;5073034;28;20501;-67
2023/04/02 01:42:48;;;;;;;56.67;2.43;;;;;;;;;;5073035;28;21011;-67
2023/04/02 01:45:18;;;;;;;56.80;2.30;;;;;;;;;;5073124;28;20469;-68
2023/04/02 01:47:45;;;;;;;56.87;2.50;;;;;;;;;;5072214;28;20520;-68
2023/04/02 01:50:21;;;;;;;57.07;2.40;;;;;;;;;;5072783;28;20452;-67
2023/04/02 01:52:50;;;;;;;56.30;2.33;;;;;;;;;;5073212;28;20462;-67
2023/04/02 01:55:20;;;;;;;58.03;2.67;;;;;;;;;;5072915;28;21120;-67
2023/04/02 01:57:49;;;;;;;59.90;2.60;;;;;;;;;;5072612;28;20479;-67
2023/04/02 02:00:18;;;;;;;57.53;2.30;;;;;;;;;;5072376;28;20451;-67
2023/04/02 02:02:47;;;;;;;59.50;2.40;;;;;;;;;;5072883;28;20473;-68
2023/04/02 02:05:15;;;;;;;56.90;2.47;;;;;;;;;;5072636;28;20451;-68
2023/04/02 02:07:42;;;;;;;57.60;2.47;;;;;;;;;;5072646;28;20851;-67
2023/04/02 02:10:12;;;;;;;57.20;2.43;;;;;;;;;;5072323;28;20831;-67
2023/04/02 02:12:39;;;;;;;56.90;2.60;;;;;;;;;;5072448;28;20443;-67
2023/04/02 02:15:13;;;;;;;57.23;2.30;;;;;;;;;;5072434;28;20457;-68
2023/04/02 02:17:42;;;;;;;57.30;2.50;;;;;;;;;;5072461;28;20582;-67
2023/04/02 02:20:09;;;;;;;56.90;2.37;;;;;;;;;;5072147;28;20447;-67
2023/04/02 02:22:37;;;;;;;57.70;2.80;;;;;;;;;;5072401;28;20462;-68
2023/04/02 02:25:07;;;;;;;56.97;2.40;;;;;;;;;;5072203;28;20967;-68
2023/04/02 02:27:43;;;;;;;57.73;2.63;;;;;;;;;;5072369;28;20464;-67
2023/04/02 02:30:13;;;;;;;57.07;2.67;;;;;;;;;;5072087;28;20820;-67
2023/04/02 02:32:44;;;;;;;57.83;2.60;;;;;;;;;;5072324;28;20444;-69
2023/04/02 02:35:12;;;;;;;59.20;3.40;;;;;;;;;;5072151;28;20455;-67
2023/04/02 02:37:41;;;;;;;58.10;3.43;;;;;;;;;;5071964;28;20463;-67
2023/04/02 02:40:12;;;;;;;59.60;3.23;;;;;;;;;;5071985;28;20444;-67
2023/04/02 02:42:40;;;;;;;58.97;3.30;;;;;;;;;;5072428;28;20455;-68
2023/04/02 02:45:11;;;;;;;58.47;2.83;;;;;;;;;;5072158;28;20844;-67
2023/04/02 02:47:40;;;;;;;57.50;2.90;;;;;;;;;;5072088;28;20471;-67
2023/04/02 02:50:10;;;;;;;58.70;2.93;;;;;;;;;;5071668;28;20827;-68
2023/04/02 02:52:38;;;;;;;57.40;2.70;;;;;;;;;;5072205;28;20439;-67
2023/04/02 02:55:06;;;;;;;58.83;2.90;;;;;;;;;;5072167;28;20458;-67
2023/04/02 02:57:35;;;;;;;58.53;2.90;;;;;;;;;;5071632;28;20467;-69
2023/04/02 03:00:04;;;;;;;58.37;3.57;;;;;;;;;;5070917;28;20487;-67
2023/04/02 03:02:32;;;;;;;59.20;3.60;;;;;;;;;;5071829;28;20538;-67
2023/04/02 03:05:01;;;;;;;59.77;4.80;;;;;;;;;;5071677;28;20444;-68
2023/04/02 03:07:30;;;;;;;57.83;3.93;;;;;;;;;;5071681;28;21058;-67
2023/04/02 03:10:03;;;;;;;58.27;2.70;;;;;;;;;;5071597;28;20526;-67
2023/04/02 03:12:41;;;;;;;57.37;2.40;;;;;;;;;;5071676;28;20928;-67
2023/04/02 03:15:14;;;;;;;58.30;2.90;;;;;;;;;;5071750;28;20454;-68
2023/04/02 03:17:44;;;;;;;56.87;2.70;;;;;;;;;;5071867;28;20475;-67
2023/04/02 03:20:14;;;;;;;61.73;2.77;;;;;;;;;;5071485;28;20454;-67
2023/04/02 03:22:45;;;;;;;57.83;2.70;;;;;;;;;;5071757;28;20785;-68
2023/04/02 03:25:17;;;;;;;57.10;2.30;;;;;;;;;;5071552;28;20451;-68
2023/04/02 03:27:46;;;;;;;57.90;2.63;;;;;;;;;;5071473;28;20474;-67
2023/04/02 03:30:22;;;;;;;57.27;2.27;;;;;;;;;;5071409;28;20449;-67
2023/04/02 03:32:51;;;;;;;57.90;2.70;;;;;;;;;;5071740;28;20455;-67
2023/04/02 03:35:20;;;;;;;57.13;2.40;;;;;;;;;;5071466;28;20530;-68
2023/04/02 03:37:51;;;;;;;57.70;2.53;;;;;;;;;;5071534;28;20470;-66
2023/04/02 03:40:21;;;;;;;58.40;3.40;;;;;;;;;;5071047;28;20458;-67
2023/04/02 03:42:49;;;;;;;57.60;2.60;;;;;;;;;;5071466;28;20948;-68
2023/04/02 03:45:18;;;;;;;57.93;2.63;;;;;;;;;;5071589;28;20447;-68
2023/04/02 03:47:47;;;;;;;57.37;2.60;;;;;;;;;;5071470;28;20468;-67
2023/04/02 03:50:17;;;;;;;57.60;2.80;;;;;;;;;;5071086;28;20939;-67
2023/04/02 03:52:45;;;;;;;58.63;3.07;;;;;;;;;;5071281;28;20447;-66
2023/04/02 03:55:16;;;;;;;57.07;2.90;;;;;;;;;;5071650;28;20947;-67
2023/04/02 03:57:46;;;;;;;59.33;2.80;;;;;;;;;;5071368;28;20467;-67
2023/04/02 04:00:15;;;;;;;57.93;2.90;;;;;;;;;;5070997;28;20482;-68
2023/04/02 04:02:44;;;;;;;57.40;2.80;;;;;;;;;;5071325;28;20850;-68
2023/04/02 04:05:22;;;;;;;57.30;2.43;;;;;;;;;;5071097;28;20968;-68
2023/04/02 04:07:52;;;;;;;57.40;2.50;;;;;;;;;;5071361;28;20470;-67
2023/04/02 04:10:23;;;;;;;58.17;2.57;;;;;;;;;;5072456;28;20493;-68
2023/04/02 04:12:51;;;;;;;56.93;2.10;;;;;;;;;;5075022;28;20451;-66
2023/04/02 04:15:21;;;;;;;56.63;2.17;;;;;;;;;;5074793;28;20458;-67
2023/04/02 04:17:53;;;;;;;57.20;2.30;;;;;;;;;;5074560;28;21105;-67
2023/04/02 04:20:22;;;;;;;57.07;2.60;;;;;;;;;;5074576;28;20483;-67
2023/04/02 04:22:54;;;;;;;56.47;2.47;;;;;;;;;;5074622;28;20955;-68
2023/04/02 04:25:28;;;;;;;57.30;2.70;;;;;;;;;;5074586;28;21039;-67
2023/04/02 04:28:04;;;;;;;56.80;2.60;;;;;;;;;;5074505;28;20471;-69
2023/04/02 04:30:35;;;;;;;57.80;2.50;;;;;;;;;;5074472;28;20527;-67
2023/04/02 04:33:04;;;;;;;57.60;2.57;;;;;;;;;;5074471;28;21046;-67
2023/04/02 04:35:33;;;;;;;57.27;2.53;;;;;;;;;;5074596;28;20454;-66
2023/04/02 04:38:02;;;;;;;57.20;2.47;;;;;;;;;;5074322;28;20566;-66
2023/04/02 04:40:32;;;;;;;57.50;2.50;;;;;;;;;;5073901;28;20479;-67
2023/04/02 04:43:02;;;;;;;56.87;2.40;;;;;;;;;;5074220;28;20451;-67
2023/04/02 04:45:36;;;;;;;57.60;2.43;;;;;;;;;;5074452;28;20831;-67
2023/04/02 04:48:05;;;;;;;58.87;2.53;;;;;;;;;;5074065;28;21088;-67
2023/04/02 04:50:34;;;;;;;57.27;2.50;;;;;;;;;;5073988;28;20443;-69
2023/04/02 04:53:05;;;;;;;58.63;2.37;;;;;;;;;;5074140;28;20838;-68
2023/04/02 04:55:38;;;;;;;57.90;2.40;;;;;;;;;;5074309;28;20447;-67
2023/04/02 04:58:09;;;;;;;57.40;2.80;;;;;;;;;;5073846;28;20529;-67
2023/04/02 05:00:40;;;;;;;57.60;2.60;;;;;;;;;;5073768;28;20538;-67
2023/04/02 05:03:12;;;;;;;57.97;2.60;;;;;;;;;;5073875;28;20454;-67
2023/04/02 05:05:40;;;;;;;56.80;2.70;;;;;;;;;;5073848;28;20534;-67
2023/04/02 05:08:12;;;;;;;57.07;2.50;;;;;;;;;;5073633;28;20986;-67
2023/04/02 05:10:43;;;;;;;58.10;2.67;;;;;;;;;;5073801;28;20454;-67
2023/04/02 05:13:15;;;;;;;57.33;2.50;;;;;;;;;;5073890;28;20447;-66
2023/04/02 05:15:44;;;;;;;57.50;2.50;;;;;;;;;;5073677;28;20505;-67
2023/04/02 05:18:16;;;;;;;57.00;2.30;;;;;;;;;;5073399;28;20497;-68
2023/04/02 05:20:47;;;;;;;56.93;2.47;;;;;;;;;;5073177;28;20483;-67
2023/04/02 05:23:18;;;;;;;56.40;2.40;;;;;;;;;;5073130;28;20851;-67
2023/04/02 05:25:55;;;;;;;57.10;2.17;;;;;;;;;;5073399;28;20459;-68
2023/04/02 05:28:26;;;;;;;57.17;2.30;;;;;;;;;;5073363;28;20467;-67
2023/04/02 05:30:55;;;;;;;60.57;2.57;;;;;;;;;;5073403;28;20447;-67
2023/04/02 05:33:24;;;;;;;57.97;2.47;;;;;;;;;;5073294;28;20905;-67
2023/04/02 05:35:54;;;;;;;57.50;2.50;;;;;;;;;;5073274;28;20451;-69
2023/04/02 05:38:22;;;;;;;57.53;2.30;;;;;;;;;;5072969;28;20480;-67
2023/04/02 05:40:51;;;;;;;58.50;2.60;;;;;;;;;;5072959;28;20489;-67
2023/04/02 05:43:21;;;;;;;59.40;2.50;;;;;;;;;;5073057;28;20443;-67
2023/04/02 05:45:53;;;;;;;57.30;2.73;;;;;;;;;;5073314;28;20830;-67
2023/04/02 05:48:21;;;;;;;56.30;2.40;;;;;;;;;;5072851;28;20472;-67
2023/04/02 05:50:50;;;;;;;57.90;2.57;;;;;;;;;;5072760;28;20966;-67
2023/04/02 05:53:19;;;;;;;57.73;2.50;;;;;;;;;;5072902;28;20451;-67
2023/04/02 05:55:52;;;;;;;57.83;2.47;;;;;;;;;;5072812;28;20447;-67
2023/04/02 05:58:25;;;;;;;57.10;2.87;;;;;;;;;;5072617;28;20475;-67
2023/04/02 06:00:58;;;;;;;59.60;2.80;;;;;;;;;;5072947;28;20483;-67
2023/04/02 06:03:29;;;;;;;57.70;2.47;;;;;;;;;;5072737;28;20477;-67
2023/04/02 06:05:58;;;;;;;57.53;2.70;;;;;;;;;;5072721;28;20470;-68
2023/04/02 06:08:27;;;;;;;58.67;2.80;;;;;;;;;;5072679;28;20482;-67
2023/04/02 06:10:56;;;;;;;57.00;2.63;;;;;;;;;;5072593;28;20448;-68
2023/04/02 06:13:25;;;;;;;57.37;2.73;;;;;;;;;;5072697;28;20944;-67
2023/04/02 06:15:52;;;;;;;57.60;2.50;;;;;;;;;;5072571;28;20474;-68
2023/04/02 06:18:20;;;;;;;58.37;3.27;;;;;;;;;;5072325;28;20467;-67
2023/04/02 06:20:48;;;;;;;59.30;3.30;;;;;;;;;;5071961;28;20482;-68
2023/04/02 06:23:17;;;;;;;58.17;3.43;;;;;;;;;;5072287;28;20448;-67
2023/04/02 06:25:46;;;;;;;58.70;3.10;;;;;;;;;;5072228;28;20964;-67
2023/04/02 06:28:15;;;;;;;57.60;3.20;;;;;;;;;;5072101;28;20459;-66
2023/04/02 06:30:44;;;;;;;58.20;3.30;;;;;;;;;;5072044;28;20444;-68
2023/04/02 06:33:12;;;;;;;58.50;3.30;;;;;;;;;;5071901;28;20970;-68
2023/04/02 06:35:40;;;;;;;58.00;3.50;;;;;;;;;;5072130;28;20452;-67
2023/04/02 06:38:13;;;;;;;60.00;4.60;;;;;;;;;;5072206;28;20478;-67
2023/04/02 06:40:42;;;;;;;60.10;4.77;;;;;;;;;;5071975;28;21022;-67
2023/04/02 06:43:14;;;;;;;59.90;4.50;;;;;;;;;;5072122;28;20443;-69
2023/04/02 06:45:42;;;;;;;60.60;4.43;;;;;;;;;;5071971;28;20447;-67
2023/04/02 06:48:15;;;;;;;57.87;3.40;;;;;;;;;;5071843;28;20983;-67
2023/04/02 06:50:46;;;;;;;57.87;3.37;;;;;;;;;;5071934;28;20857;-67
2023/04/02 06:53:18;;;;;;;59.33;3.40;;;;;;;;;;5072061;28;20452;-67
2023/04/02 06:55:48;;;;;;;58.17;3.10;;;;;;;;;;5071964;28;20451;-67
2023/04/02 06:58:15;;;;;;;60.83;3.13;;;;;;;;;;5071683;28;20474;-67
2023/04/02 07:00:44;;;;;;;58.67;3.03;;;;;;;;;;5071742;28;20572;-68
2023/04/02 07:03:16;;;;;;;58.33;3.23;;;;;;;;;;5071989;28;20517;-69
2023/04/02 07:05:44;;;;;;;57.90;3.20;;;;;;;;;;5071809;28;20955;-68
2023/04/02 07:08:11;;;;;;;57.87;3.30;;;;;;;;;;5071603;28;20475;-67
2023/04/02 07:10:38;;;;;;;57.77;2.70;;;;;;;;;;5071446;28;20442;-67
2023/04/02 07:13:07;;;;;;;58.37;3.17;;;;;;;;;;5071954;28;20455;-67
2023/04/02 07:15:34;;;;;;;57.00;2.60;;;;;;;;;;5071633;28;20475;-68
2023/04/02 07:18:01;;;;;;;57.37;3.10;;;;;;;;;;5071697;28;20467;-67
2023/04/02 07:20:30;;;;;;;57.97;3.20;;;;;;;;;;5071261;28;20481;-68
2023/04/02 07:22:58;;;;;;;59.07;3.70;;;;;;;;;;5071777;28;20473;-67
2023/04/02 07:25:26;;;;;;;57.80;3.00;;;;;;;;;;5071541;28;20463;-68
2023/04/02 07:27:53;;;;;;;58.27;2.70;;;;;;;;;;5071909;28;20467;-67
2023/04/02 07:30:21;;;;;;;57.90;2.77;;;;;;;;;;5071541;28;20450;-68
2023/04/02 07:32:48;;;;;;;57.70;2.90;;;;;;;;;;5071711;28;20450;-67
2023/04/02 07:35:15;;;;;;;57.47;2.83;;;;;;;;;;5071478;28;20451;-68
2023/04/02 07:37:43;;;;;;;57.87;2.67;;;;;;;;;;5071399;28;20468;-67
2023/04/02 07:40:15;;;;;;;57.17;2.20;;;;;;;;;;5071466;28;20497;-68
2023/04/02 07:42:43;;;;;;;58.10;3.10;;;;;;;;;;5071685;28;20459;-69
2023/04/02 07:45:10;;;;;;;60.67;3.03;;;;;;;;;;5072972;28;20970;-67
2023/04/02 07:47:37;;;;;;;57.47;2.90;;;;;;;;;;5075289;28;20463;-68
2023/04/02 07:50:05;;;;;;;57.30;2.60;;;;;;;;;;5075067;28;20452;-67
2023/04/02 07:52:32;;;;;;;58.47;2.50;;;;;;;;;;5075220;28;20447;-67
2023/04/02 07:55:00;;;;;;;57.43;2.67;;;;;;;;;;5075247;28;20439;-68
2023/04/02 07:57:27;;;;;;;58.07;2.50;;;;;;;;;;5075263;28;20462;-69
2023/04/02 07:59:55;;;;;;;57.17;2.40;;;;;;;;;;5074794;28;20479;-67
2023/04/02 08:02:23;;;;;;;57.20;2.57;;;;;;;;;;5075068;28;20994;-67
2023/04/02 08:04:51;;;;;;;56.80;2.57;;;;;;;;;;5074812;28;20447;-68
2023/04/02 08:07:18;;;;;;;58.60;2.70;;;;;;;;;;5075165;28;20463;-68
2023/04/02 08:09:45;;;;;;;57.43;2.83;;;;;;;;;;5074731;28;20465;-67
2023/04/02 08:12:15;;;;;;;59.47;2.83;;;;;;;;;;5075028;28;20455;-67
2023/04/02 08:14:42;;;;;;;58.20;2.93;;;;;;;;;;5074772;28;20451;-68
2023/04/02 08:17:09;;;;;;;58.60;2.87;;;;;;;;;;5074778;28;20451;-68
2023/04/02 08:19:36;;;;;;;57.77;2.63;;;;;;;;;;5074259;28;21041;-67
2023/04/02 08:22:03;;;;;;;59.63;3.13;;;;;;;;;;5074847;28;20449;-67
2023/04/02 08:24:30;;;;;;;57.27;2.70;;;;;;;;;;5074716;28;20455;-67
2023/04/02 08:26:57;;;;;;;57.20;2.70;;;;;;;;;;5074538;28;20447;-67
2023/04/02 08:29:30;;;;;;;57.50;2.80;;;;;;;;;;5074259;28;20439;-67
2023/04/02 08:31:58;;;;;;;57.97;3.03;;;;;;;;;;5074436;28;20443;-67
2023/04/02 08:34:25;;;;;;;58.00;2.70;;;;;;;;;;5074426;28;20454;-67
2023/04/02 08:36:56;;;;;;;58.10;2.63;;;;;;;;;;5074531;28;20540;-69
2023/04/02 08:39:24;;;;;;;57.87;3.00;;;;;;;;;;5074216;28;20447;-67
2023/04/02 08:41:55;;;;;;;57.90;2.70;;;;;;;;;;5074365;28;20483;-67
2023/04/02 08:44:28;;;;;;;57.97;2.83;;;;;;;;;;5074213;28;20485;-68
2023/04/02 08:47:01;;;;;;;58.13;2.60;;;;;;;;;;5074234;28;20451;-67
2023/04/02 08:49:30;;;;;;;57.33;2.60;;;;;;;;;;5073881;28;20497;-68
2023/04/02 08:51:57;;;;;;;58.30;2.70;;;;;;;;;;5074344;28;20479;-67
2023/04/02 08:54:26;;;;;;;58.00;2.93;;;;;;;;;;5074077;28;20466;-67
2023/04/02 08:56:56;;;;;;;59.37;3.80;;;;;;;;;;5073852;28;20447;-67
2023/04/02 08:59:26;;;;;;;58.30;3.40;;;;;;;;;;5073810;28;20447;-68
2023/04/02 09:01:55;;;;;;;60.17;4.83;;;;;;;;;;5074067;28;20484;-67
2023/04/02 09:04:24;;;;;;;58.40;3.90;;;;;;;;;;5073945;28;20516;-67
2023/04/02 09:06:54;;;;;;;58.13;3.30;;;;;;;;;;5073871;28;20455;-68
2023/04/02 09:09:22;;;;;;;58.77;3.10;;;;;;;;;;5073465;28;20455;-68
2023/04/02 09:11:53;;;;;;;57.37;2.63;;;;;;;;;;5074079;28;20443;-68
2023/04/02 09:14:21;;;;;;;58.60;3.50;;;;;;;;;;5073770;28;20447;-68
2023/04/02 09:16:50;;;;;;;58.67;3.00;;;;;;;;;;5073845;28;20447;-68
2023/04/02 09:19:19;;;;;;;57.70;2.70;;;;;;;;;;5073301;28;20452;-67
2023/04/02 09:21:52;;;;;;;57.30;2.77;;;;;;;;;;5073468;28;21007;-67
2023/04/02 09:24:20;;;;;;;58.40;2.97;;;;;;;;;;5073490;28;20467;-68
2023/04/02 09:26:47;;;;;;;57.27;2.70;;;;;;;;;;5073715;28;20455;-67
2023/04/02 09:29:25;;;;;;;57.47;2.90;;;;;;;;;;5073659;28;20471;-67
2023/04/02 09:31:56;;;;;;;58.50;3.20;;;;;;;;;;5073399;28;20931;-67
2023/04/02 09:34:29;;;;;;;57.47;2.60;;;;;;;;;;5073266;28;20509;-67
2023/04/02 09:37:06;;;;;;;58.27;2.80;;;;;;;;;;5073440;28;20475;-68
2023/04/02 09:39:34;;;;;;;57.40;2.67;;;;;;;;;;5073109;28;20863;-67
2023/04/02 09:42:05;;;;;;;58.77;3.40;;;;;;;;;;5073166;28;20486;-67
2023/04/02 09:44:33;;;;;;;57.50;2.90;;;;;;;;;;5073242;28;20549;-65
2023/04/02 09:47:02;;;;;;;57.63;2.90;;;;;;;;;;5072898;28;20899;-65
2023/04/02 09:49:30;;;;;;;58.20;3.20;;;;;;;;;;5072932;28;20451;-65
2023/04/02 09:52:15;;;;;;;58.37;2.77;;;;;;;;;;5073114;28;20450;-65
2023/04/02 09:54:42;;;;;;;57.73;2.93;;;;;;;;;;5073050;28;20447;-65
2023/04/02 09:57:19;;;;;;;60.17;2.80;;;;;;;;;;5072869;28;20451;-65
2023/04/02 09:59:47;;;;;;;57.40;2.60;;;;;;;;;;5072716;28;20454;-65
2023/04/02 10:02:24;;;;;;;58.07;2.67;;;;;;;;;;5072631;28;20558;-65
2023/04/02 10:04:52;;;;;;;58.17;2.77;;;;;;;;;;5072838;28;20474;-65
2023/04/02 10:07:34;;;;;;;58.10;2.70;;;;;;;;;;5072200;28;20476;-65
2023/04/02 10:10:02;;;;;;;57.37;2.70;;;;;;;;;;5072260;28;21154;-65
2023/04/02 10:12:31;;;;;;;58.13;2.70;;;;;;;;;;5072745;28;20538;-65
2023/04/02 10:14:58;;;;;;;57.03;2.60;;;;;;;;;;5072739;28;20447;-64
2023/04/02 10:17:28;;;;;;;57.93;2.70;;;;;;;;;;5072451;28;20474;-65
2023/04/02 10:19:56;;;;;;;57.40;2.53;;;;;;;;;;5072171;28;20447;-65
2023/04/02 10:22:24;;;;;;;58.20;2.67;;;;;;;;;;5072211;28;20434;-66
2023/04/02 10:24:53;;;;;;;58.47;2.70;;;;;;;;;;5072375;28;20508;-66
2023/04/02 10:27:28;;;;;;;57.40;2.73;;;;;;;;;;5072461;28;20463;-66
2023/04/02 10:30:06;;;;;;;57.30;2.57;;;;;;;;;;5072065;28;20446;-67
2023/04/02 10:32:36;;;;;;;57.67;2.90;;;;;;;;;;5072239;28;20454;-66
2023/04/02 10:35:04;;;;;;;57.80;2.60;;;;;;;;;;5072149;28;20451;-67
2023/04/02 10:37:46;;;;;;;57.07;2.50;;;;;;;;;;5072311;28;20822;-67
2023/04/02 10:40:19;;;;;;;57.80;3.07;;;;;;;;;;5059165;28;20455;-66
2023/04/02 10:42:52;;;;;;;60.70;2.23;;;;;;;;;;5072207;28;20817;-65
2023/04/02 10:45:23;;;;;;;58.10;2.63;;;;;;;;;;5071928;28;20955;-67
2023/04/02 10:47:52;;;;;;;57.70;2.37;;;;;;;;;;5072231;28;20471;-66
2023/04/02 10:50:28;;;;;;;57.50;2.60;;;;;;;;;;5072054;28;20460;-67
2023/04/02 10:52:58;;;;;;;57.20;2.30;;;;;;;;;;5072610;28;20451;-66
2023/04/02 10:55:29;;;;;;;57.03;2.60;;;;;;;;;;5072086;28;20444;-66
2023/04/02 10:57:58;;;;;;;57.33;2.43;;;;;;;;;;5072266;28;20558;-66
2023/04/02 11:00:26;;;;;;;58.00;3.00;;;;;;;;;;5071870;28;20443;-66
2023/04/02 11:02:56;;;;;;;57.40;2.60;;;;;;;;;;5071819;28;21043;-66
2023/04/02 11:05:28;;;;;;;57.40;2.40;;;;;;;;;;5071926;28;20451;-66
2023/04/02 11:07:58;;;;;;;57.20;2.40;;;;;;;;;;5071776;28;20463;-66
2023/04/02 11:10:27;;;;;;;58.23;2.50;;;;;;;;;;5071446;28;20958;-66
2023/04/02 11:12:56;;;;;;;57.00;2.43;;;;;;;;;;5072005;28;20939;-66
2023/04/02 11:15:24;;;;;;;57.30;2.53;;;;;;;;;;5071701;28;20449;-65
2023/04/02 11:17:51;;;;;;;57.73;2.37;;;;;;;;;;5071800;28;20478;-66
2023/04/02 11:20:39;;;;;;;57.00;2.40;;;;;;;;;;5073183;28;20975;-66
2023/04/02 11:23:10;;;;;;;57.30;2.60;;;;;;;;;;5076166;28;20721;-66
2023/04/02 11:25:38;;;;;;;57.17;2.30;;;;;;;;;;5076013;28;20463;-66
2023/04/02 11:28:23;;;;;;;57.00;2.30;;;;;;;;;;5075568;28;20975;-66
2023/04/02 11:30:50;;;;;;;57.20;2.43;;;;;;;;;;5075428;28;20970;-65
2023/04/02 11:33:25;;;;;;;57.03;2.40;;;;;;;;;;5075626;28;20466;-66
2023/04/02 11:35:53;;;;;;;57.20;2.20;;;;;;;;;;5075701;28;20963;-65
2023/04/02 11:38:38;;;;;;;58.07;2.70;;;;;;;;;;5075363;28;20463;-66
2023/04/02 11:41:07;;;;;;;57.37;2.40;;;;;;;;;;5075513;28;20490;-66
2023/04/02 11:43:58;;;;;;;56.97;2.50;;;;;;;;;;5075374;28;20447;-66
2023/04/02 11:46:45;;;;;;;58.30;2.83;;;;;;;;;;5060321;28;20459;-67
2023/04/02 11:49:31;;;;;;;57.20;2.53;;;;;;;;;;5075081;28;20861;-66
2023/04/02 11:51:58;;;;;;;56.80;2.37;;;;;;;;;;5075264;28;20804;-66
2023/04/02 11:54:27;;;;;;;57.27;2.30;;;;;;;;;;5075466;28;20443;-66
2023/04/02 11:56:58;;;;;;;57.10;2.50;;;;;;;;;;5075469;28;20454;-66
2023/04/02 11:59:29;;;;;;;57.17;2.20;;;;;;;;;;5074883;28;20445;-66
2023/04/02 12:02:07;;;;;;;57.00;2.23;;;;;;;;;;5075507;28;20994;-66
2023/04/02 12:04:42;;;;;;;56.77;2.00;;;;;;;;;;5075004;28;20446;-67
2023/04/02 12:07:35;;;;;;;57.03;2.37;;;;;;;;;;5075198;28;20443;-65
2023/04/02 12:10:03;;;;;;;57.00;2.10;;;;;;;;;;5075125;28;20517;-66
2023/04/02 12:12:34;;;;;;;56.90;2.33;;;;;;;;;;5074854;28;20955;-65
2023/04/02 12:15:02;;;;;;;59.57;3.67;;;;;;;;;;5074765;28;20467;-65
2023/04/02 12:17:30;;;;;;;56.87;2.23;;;;;;;;;;5074758;28;20467;-66
2023/04/02 12:19:59;;;;;;;58.10;2.50;;;;;;;;;;5074426;28;20443;-66
2023/04/02 12:22:28;;;;;;;57.30;2.70;;;;;;;;;;5074740;28;20525;-66
2023/04/02 12:24:57;;;;;;;56.80;2.53;;;;;;;;;;5074630;28;20510;-65
2023/04/02 12:27:26;;;;;;;56.93;2.60;;;;;;;;;;5074472;28;20467;-66
2023/04/02 12:29:56;;;;;;;57.60;2.57;;;;;;;;;;5074558;28;20447;-65
2023/04/02 12:32:27;;;;;;;57.30;2.50;;;;;;;;;;5074262;28;20455;-68
2023/04/02 12:34:56;;;;;;;57.20;2.80;;;;;;;;;;5074508;28;20449;-68
2023/04/02 12:37:24;;;;;;;57.80;3.07;;;;;;;;;;5074485;28;20470;-66
2023/04/02 12:39:52;;;;;;;58.77;2.80;;;;;;;;;;5073965;28;20546;-68
2023/04/02 12:42:26;;;;;;;57.10;2.50;;;;;;;;;;5074531;28;20569;-68
2023/04/02 12:44:55;;;;;;;57.43;2.90;;;;;;;;;;5074279;28;20442;-67
2023/04/02 12:47:22;;;;;;;58.10;3.00;;;;;;;;;;5074337;28;20467;-67
2023/04/02 12:49:50;;;;;;;57.37;2.87;;;;;;;;;;5073955;28;20444;-68
2023/04/02 12:52:18;;;;;;;57.70;3.10;;;;;;;;;;5074231;28;20451;-69
2023/04/02 12:54:46;;;;;;;57.27;2.60;;;;;;;;;;5074370;28;20447;-68
2023/04/02 12:57:37;;;;;;;57.77;2.80;;;;;;;;;;5074190;28;20463;-69
2023/04/02 13:00:19;;;;;;;57.07;2.23;;;;;;;;;;5058410;28;20455;-68
2023/04/02 13:02:50;;;;;;;57.77;3.07;;;;;;;;;;5073741;28;20483;-68
2023/04/02 13:05:32;;;;;;;58.00;2.90;;;;;;;;;;5074391;28;20459;-68
2023/04/02 13:07:59;;;;;;;57.17;2.80;;;;;;;;;;5073947;28;20471;-69
2023/04/02 13:10:27;;;;;;;57.27;2.67;;;;;;;;;;5073750;28;20443;-68
2023/04/02 13:12:55;;;;;;;57.97;3.07;;;;;;;;;;5073896;28;20453;-68
2023/04/02 13:15:24;;;;;;;57.27;2.60;;;;;;;;;;5073688;28;20451;-67
2023/04/02 13:18:04;;;;;;;58.97;4.43;;;;;;;;;;5073886;28;20810;-67
2023/04/02 13:20:32;;;;;;;57.60;2.77;;;;;;;;;;5073568;28;20448;-68
2023/04/02 13:23:01;;;;;;;57.27;2.70;;;;;;;;;;5073658;28;20487;-68
2023/04/02 13:25:29;;;;;;;58.17;3.43;;;;;;;;;;5073472;28;20508;-68
2023/04/02 13:27:57;;;;;;;57.33;2.77;;;;;;;;;;5073518;28;20524;-69
2023/04/02 13:30:25;;;;;;;56.97;2.53;;;;;;;;;;5073551;28;20860;-68
2023/04/02 13:32:52;;;;;;;57.70;3.20;;;;;;;;;;5073827;28;20450;-68
2023/04/02 13:35:21;;;;;;;57.57;2.93;;;;;;;;;;5073325;28;20463;-68
2023/04/02 13:37:48;;;;;;;57.80;2.90;;;;;;;;;;5073232;28;20475;-69
2023/04/02 13:40:16;;;;;;;58.40;3.33;;;;;;;;;;5072866;28;20447;-67
2023/04/02 13:42:44;;;;;;;58.10;3.30;;;;;;;;;;5072241;28;20487;-68
2023/04/02 13:45:20;;;;;;;57.80;3.27;;;;;;;;;;5073394;28;20816;-68
2023/04/02 13:47:47;;;;;;;58.23;3.30;;;;;;;;;;5073214;28;20470;-68
2023/04/02 13:50:17;;;;;;;58.57;3.37;;;;;;;;;;5072735;28;20746;-68
2023/04/02 13:52:45;;;;;;;57.67;3.17;;;;;;;;;;5072969;28;20522;-68
2023/04/02 13:55:14;;;;;;;59.17;3.00;;;;;;;;;;5073195;28;20824;-69
2023/04/02 13:57:41;;;;;;;57.87;3.00;;;;;;;;;;5073103;28;20474;-68
2023/04/02 14:00:09;;;;;;;57.60;3.03;;;;;;;;;;5072513;28;20447;-68
2023/04/02 14:02:42;;;;;;;57.60;3.13;;;;;;;;;;5072793;28;20525;-68
2023/04/02 14:05:13;;;;;;;57.17;2.60;;;;;;;;;;5072782;28;20451;-68
2023/04/02 14:07:49;;;;;;;58.27;3.07;;;;;;;;;;5072924;28;20459;-68
2023/04/02 14:10:23;;;;;;;57.37;2.70;;;;;;;;;;5072323;28;20487;-68
2023/04/02 14:12:56;;;;;;;57.27;2.80;;;;;;;;;;5072748;28;20451;-68
2023/04/02 14:15:28;;;;;;;57.80;3.40;;;;;;;;;;5072656;28;20479;-69
2023/04/02 14:18:01;;;;;;;57.90;3.13;;;;;;;;;;5072330;28;20467;-70
2023/04/02 14:20:35;;;;;;;58.17;3.30;;;;;;;;;;5072496;28;20454;-68
2023/04/02 14:23:20;;;;;;;58.27;3.60;;;;;;;;;;5072561;28;20483;-68
2023/04/02 14:25:51;;;;;;;57.87;3.13;;;;;;;;;;5072228;28;20534;-68
2023/04/02 14:28:26;;;;;;;58.40;3.30;;;;;;;;;;5072147;28;20487;-68
2023/04/02 14:30:57;;;;;;;58.00;3.03;;;;;;;;;;5072328;28;20471;-69
2023/04/02 14:33:29;;;;;;;57.90;3.17;;;;;;;;;;5072395;28;20444;-68
2023/04/02 14:36:00;;;;;;;58.33;3.57;;;;;;;;;;5072196;28;20447;-67
2023/04/02 14:38:30;;;;;;;57.37;3.03;;;;;;;;;;5071938;28;20468;-68
2023/04/02 14:41:00;;;;;;;58.30;3.23;;;;;;;;;;5071973;28;21017;-68
2023/04/02 14:43:30;;;;;;;57.57;3.20;;;;;;;;;;5071972;28;21038;-67
2023/04/02 14:45:59;;;;;;;57.60;2.90;;;;;;;;;;5072229;28;20458;-67
2023/04/02 14:48:31;;;;;;;58.17;2.93;;;;;;;;;;5071939;28;20844;-69
2023/04/02 14:51:01;;;;;;;57.43;3.00;;;;;;;;;;5072021;28;20447;-68